createdAt,value
2018-12-28T00:00:38.852Z,1017.67
2018-12-28T00:01:38.777Z,1017.66
2018-12-28T00:02:38.755Z,1017.62
2018-12-28T00:03:38.732Z,1017.65
2018-12-28T00:04:38.714Z,1017.64
2018-12-28T00:05:38.687Z,1017.66
2018-12-28T00:06:38.673Z,1017.60
2018-12-28T00:07:38.644Z,1017.63
2018-12-28T00:08:38.623Z,1017.69
2018-12-28T00:09:38.606Z,1017.66
2018-12-28T00:10:38.592Z,1017.68
2018-12-28T00:11:38.559Z,1017.69
2018-12-28T00:12:38.538Z,1017.70
2018-12-28T00:13:38.514Z,1017.69
2018-12-28T00:14:38.496Z,1017.70
2018-12-28T00:15:38.471Z,1017.74
2018-12-28T00:16:38.451Z,1017.68
2018-12-28T00:17:38.425Z,1017.66
2018-12-28T00:18:38.403Z,1017.66
2018-12-28T00:19:38.380Z,1017.68
2018-12-28T00:20:38.360Z,1017.66
2018-12-28T00:21:38.347Z,1017.72
2018-12-28T00:22:38.318Z,1017.64
2018-12-28T00:23:38.303Z,1017.68
2018-12-28T00:24:38.273Z,1017.67
2018-12-28T00:25:38.254Z,1017.65
2018-12-28T00:26:38.232Z,1017.65
2018-12-28T00:27:38.207Z,1017.65
2018-12-28T00:28:38.186Z,1017.70
2018-12-28T00:29:38.168Z,1017.75
2018-12-28T00:30:38.144Z,1017.74
2018-12-28T00:31:38.127Z,1017.73
2018-12-28T00:32:38.102Z,1017.74
2018-12-28T00:33:38.078Z,1017.72
2018-12-28T00:34:38.060Z,1017.76
2018-12-28T00:35:38.035Z,1017.71
2018-12-28T00:36:38.015Z,1017.77
2018-12-28T00:37:37.996Z,1017.73
2018-12-28T00:38:37.976Z,1017.77
2018-12-28T00:39:37.952Z,1017.71
2018-12-28T00:40:37.927Z,1017.72
2018-12-28T00:41:37.910Z,1017.72
2018-12-28T00:42:37.886Z,1017.76
2018-12-28T00:43:37.864Z,1017.71
2018-12-28T00:44:37.840Z,1017.71
2018-12-28T00:45:37.822Z,1017.72
2018-12-28T00:46:37.801Z,1017.79
2018-12-28T00:47:37.774Z,1017.85
2018-12-28T00:48:37.756Z,1017.87
2018-12-28T00:49:37.736Z,1017.86
2018-12-28T00:50:37.715Z,1017.90
2018-12-28T00:51:37.691Z,1017.84
2018-12-28T00:52:37.676Z,1017.86
2018-12-28T00:53:37.648Z,1017.84
2018-12-28T00:54:37.626Z,1017.84
2018-12-28T00:55:37.602Z,1017.92
2018-12-28T00:56:37.583Z,1017.86
2018-12-28T00:57:37.558Z,1017.87
2018-12-28T00:58:37.540Z,1017.89
2018-12-28T00:59:37.514Z,1017.95
2018-12-28T01:00:37.498Z,1017.93
2018-12-28T01:01:37.476Z,1017.99
2018-12-28T01:02:37.453Z,1017.93
2018-12-28T01:03:37.429Z,1017.92
2018-12-28T01:04:37.406Z,1017.93
2018-12-28T01:05:37.389Z,1017.92
2018-12-28T01:06:37.368Z,1017.85
2018-12-28T01:07:37.354Z,1017.87
2018-12-28T01:08:37.317Z,1017.83
2018-12-28T01:09:37.301Z,1017.84
2018-12-28T01:10:37.279Z,1017.85
2018-12-28T01:11:37.260Z,1017.88
2018-12-28T01:12:37.232Z,1017.87
2018-12-28T01:13:37.220Z,1017.84
2018-12-28T01:14:37.197Z,1017.90
2018-12-28T01:15:37.173Z,1017.87
2018-12-28T01:16:37.150Z,1017.88
2018-12-28T01:17:37.121Z,1017.90
2018-12-28T01:18:37.113Z,1017.95
2018-12-28T01:19:37.081Z,1017.94
2018-12-28T01:20:37.065Z,1017.95
2018-12-28T01:21:37.039Z,1017.92
2018-12-28T01:22:37.018Z,1017.88
2018-12-28T01:23:36.997Z,1017.88
2018-12-28T01:24:36.974Z,1017.87
2018-12-28T01:25:36.953Z,1017.89
2018-12-28T01:26:36.932Z,1017.92
2018-12-28T01:27:36.908Z,1017.94
2018-12-28T01:28:36.888Z,1017.97
2018-12-28T01:29:36.864Z,1017.95
2018-12-28T01:30:36.846Z,1017.96
2018-12-28T01:31:36.822Z,1017.98
2018-12-28T01:32:36.799Z,1018.00
2018-12-28T01:33:36.777Z,1018.04
2018-12-28T01:34:36.757Z,1018.11
2018-12-28T01:35:36.734Z,1018.10
2018-12-28T01:36:36.712Z,1018.16
2018-12-28T01:37:36.690Z,1018.13
2018-12-28T01:38:36.672Z,1018.14
2018-12-28T01:39:36.651Z,1018.18
2018-12-28T01:40:36.627Z,1018.14
2018-12-28T01:41:36.609Z,1018.14
2018-12-28T01:42:36.587Z,1018.09
2018-12-28T01:43:36.563Z,1018.09
2018-12-28T01:44:36.537Z,1018.07
2018-12-28T01:45:36.519Z,1018.11
2018-12-28T01:46:36.500Z,1018.12
2018-12-28T01:47:36.478Z,1018.10
2018-12-28T01:48:36.453Z,1018.08
2018-12-28T01:49:36.434Z,1018.08
2018-12-28T01:50:36.410Z,1018.08
2018-12-28T01:51:36.387Z,1018.07
2018-12-28T01:52:36.381Z,1018.09
2018-12-28T01:53:36.343Z,1018.08
2018-12-28T01:54:36.330Z,1018.13
2018-12-28T01:55:36.304Z,1018.12
2018-12-28T01:56:36.280Z,1018.14
2018-12-28T01:57:36.258Z,1018.23
2018-12-28T01:58:36.238Z,1018.15
2018-12-28T01:59:36.219Z,1018.22
2018-12-28T02:00:36.199Z,1018.16
2018-12-28T02:01:36.175Z,1018.15
2018-12-28T02:02:36.155Z,1018.10
2018-12-28T02:03:36.129Z,1018.11
2018-12-28T02:04:36.106Z,1018.11
2018-12-28T02:05:36.088Z,1018.14
2018-12-28T02:06:36.066Z,1018.11
2018-12-28T02:07:36.043Z,1018.13
2018-12-28T02:08:36.017Z,1018.14
2018-12-28T02:09:35.995Z,1018.15
2018-12-28T02:10:35.981Z,1018.15
2018-12-28T02:11:35.957Z,1018.18
2018-12-28T02:12:35.934Z,1018.17
2018-12-28T02:13:35.912Z,1018.18
2018-12-28T02:14:35.893Z,1018.18
2018-12-28T02:15:35.866Z,1018.18
2018-12-28T02:16:35.847Z,1018.19
2018-12-28T02:17:35.829Z,1018.13
2018-12-28T02:18:35.809Z,1018.16
2018-12-28T02:19:35.782Z,1018.15
2018-12-28T02:20:35.761Z,1018.17
2018-12-28T02:21:35.741Z,1018.17
2018-12-28T02:22:35.721Z,1018.16
2018-12-28T02:23:35.696Z,1018.17
2018-12-28T02:24:35.678Z,1018.13
2018-12-28T02:25:35.653Z,1018.18
2018-12-28T02:26:35.634Z,1018.15
2018-12-28T02:27:35.609Z,1018.17
2018-12-28T02:28:35.589Z,1018.19
2018-12-28T02:29:35.567Z,1018.18
2018-12-28T02:30:35.546Z,1018.15
2018-12-28T02:31:35.527Z,1018.10
2018-12-28T02:32:35.506Z,1018.13
2018-12-28T02:33:35.490Z,1018.16
2018-12-28T02:34:35.457Z,1018.14
2018-12-28T02:35:35.446Z,1018.19
2018-12-28T02:36:35.417Z,1018.20
2018-12-28T02:37:35.396Z,1018.18
2018-12-28T02:38:35.370Z,1018.17
2018-12-28T02:39:36.868Z,1018.18
2018-12-28T02:40:35.332Z,1018.17
2018-12-28T02:41:35.311Z,1018.14
2018-12-28T02:42:35.297Z,1018.13
2018-12-28T02:43:35.267Z,1018.15
2018-12-28T02:44:35.244Z,1018.11
2018-12-28T02:45:35.228Z,1018.11
2018-12-28T02:46:35.202Z,1018.06
2018-12-28T02:47:35.181Z,1018.09
2018-12-28T02:48:35.157Z,1018.08
2018-12-28T02:49:35.138Z,1018.04
2018-12-28T02:50:35.112Z,1018.01
2018-12-28T02:51:35.096Z,1017.99
2018-12-28T02:52:35.073Z,1018.05
2018-12-28T02:53:35.049Z,1018.07
2018-12-28T02:54:35.024Z,1018.05
2018-12-28T02:55:35.008Z,1018.10
2018-12-28T02:56:34.986Z,1018.07
2018-12-28T02:57:34.975Z,1018.06
2018-12-28T02:58:34.944Z,1018.07
2018-12-28T02:59:34.930Z,1018.05
2018-12-28T03:00:34.902Z,1018.02
2018-12-28T03:01:34.880Z,1018.03
2018-12-28T03:02:34.857Z,1018.04
2018-12-28T03:03:34.833Z,1018.04
2018-12-28T03:04:34.816Z,1018.06
2018-12-28T03:05:34.789Z,1018.05
2018-12-28T03:06:34.767Z,1018.02
2018-12-28T03:07:34.746Z,1018.02
2018-12-28T03:08:34.735Z,1018.04
2018-12-28T03:09:34.703Z,1018.00
2018-12-28T03:10:34.680Z,1018.02
2018-12-28T03:11:34.662Z,1017.99
2018-12-28T03:12:34.640Z,1018.01
2018-12-28T03:13:34.616Z,1018.01
2018-12-28T03:14:34.598Z,1018.00
2018-12-28T03:15:34.579Z,1017.99
2018-12-28T03:16:34.558Z,1018.00
2018-12-28T03:17:34.535Z,1018.00
2018-12-28T03:18:34.508Z,1018.01
2018-12-28T03:19:34.492Z,1018.02
2018-12-28T03:20:34.468Z,1017.95
2018-12-28T03:21:34.447Z,1017.97
2018-12-28T03:22:34.430Z,1017.94
2018-12-28T03:23:34.402Z,1017.97
2018-12-28T03:24:34.384Z,1017.97
2018-12-28T03:25:34.364Z,1017.94
2018-12-28T03:26:34.340Z,1017.96
2018-12-28T03:27:34.315Z,1017.99
2018-12-28T03:28:34.295Z,1017.99
2018-12-28T03:29:34.280Z,1018.00
2018-12-28T03:30:34.263Z,1018.01
2018-12-28T03:31:34.233Z,1018.04
2018-12-28T03:32:34.210Z,1018.03
2018-12-28T03:33:34.187Z,1018.02
2018-12-28T03:34:34.168Z,1017.98
2018-12-28T03:35:34.146Z,1017.98
2018-12-28T03:36:34.122Z,1017.95
2018-12-28T03:37:34.105Z,1017.97
2018-12-28T03:38:34.087Z,1018.00
2018-12-28T03:39:34.061Z,1017.98
2018-12-28T03:40:34.046Z,1017.97
2018-12-28T03:41:34.018Z,1018.00
2018-12-28T03:42:34.002Z,1018.03
2018-12-28T03:43:33.979Z,1018.02
2018-12-28T03:44:33.951Z,1018.02
2018-12-28T03:45:33.932Z,1017.98
2018-12-28T03:46:33.911Z,1018.02
2018-12-28T03:47:33.891Z,1018.00
2018-12-28T03:48:33.977Z,1017.99
2018-12-28T03:49:33.846Z,1017.99
2018-12-28T03:50:33.824Z,1017.98
2018-12-28T03:51:33.803Z,1017.97
2018-12-28T03:52:33.781Z,1017.98
2018-12-28T03:53:33.761Z,1017.99
2018-12-28T03:54:33.735Z,1018.03
2018-12-28T03:55:33.718Z,1018.00
2018-12-28T03:56:33.695Z,1018.00
2018-12-28T03:57:33.674Z,1018.00
2018-12-28T03:58:33.653Z,1018.00
2018-12-28T03:59:33.641Z,1017.99
2018-12-28T04:00:33.609Z,1017.96
2018-12-28T04:01:33.591Z,1017.95
2018-12-28T04:02:33.571Z,1017.97
2018-12-28T04:03:33.545Z,1017.90
2018-12-28T04:04:33.530Z,1017.95
2018-12-28T04:05:33.504Z,1017.93
2018-12-28T04:06:33.478Z,1017.89
2018-12-28T04:07:33.459Z,1017.90
2018-12-28T04:08:33.438Z,1017.91
2018-12-28T04:09:33.419Z,1017.89
2018-12-28T04:10:33.396Z,1017.92
2018-12-28T04:11:33.370Z,1017.90
2018-12-28T04:12:33.350Z,1017.94
2018-12-28T04:13:33.332Z,1017.90
2018-12-28T04:14:33.310Z,1017.84
2018-12-28T04:15:33.290Z,1017.91
2018-12-28T04:16:33.269Z,1017.88
2018-12-28T04:17:33.246Z,1017.89
2018-12-28T04:18:33.229Z,1017.85
2018-12-28T04:19:33.201Z,1017.88
2018-12-28T04:20:33.182Z,1017.88
2018-12-28T04:21:33.161Z,1017.89
2018-12-28T04:22:33.141Z,1017.85
2018-12-28T04:23:33.121Z,1017.85
2018-12-28T04:24:33.097Z,1017.83
2018-12-28T04:25:33.074Z,1017.85
2018-12-28T04:26:33.055Z,1017.84
2018-12-28T04:27:33.029Z,1017.86
2018-12-28T04:28:33.012Z,1017.84
2018-12-28T04:29:32.987Z,1017.85
2018-12-28T04:30:32.971Z,1017.84
2018-12-28T04:31:32.944Z,1017.81
2018-12-28T04:32:32.925Z,1017.81
2018-12-28T04:33:32.907Z,1017.76
2018-12-28T04:34:32.886Z,1017.83
2018-12-28T04:35:32.861Z,1017.79
2018-12-28T04:36:32.839Z,1017.81
2018-12-28T04:37:32.818Z,1017.86
2018-12-28T04:38:32.796Z,1017.84
2018-12-28T04:39:32.776Z,1017.86
2018-12-28T04:40:32.755Z,1017.81
2018-12-28T04:41:32.738Z,1017.89
2018-12-28T04:42:32.710Z,1017.91
2018-12-28T04:43:32.685Z,1017.92
2018-12-28T04:44:32.674Z,1017.92
2018-12-28T04:45:36.042Z,1017.91
2018-12-28T04:46:32.623Z,1017.88
2018-12-28T04:47:32.602Z,1017.91
2018-12-28T04:48:32.585Z,1017.92
2018-12-28T04:49:32.557Z,1017.89
2018-12-28T04:50:32.541Z,1017.89
2018-12-28T04:51:32.515Z,1017.88
2018-12-28T04:52:32.496Z,1017.90
2018-12-28T04:53:32.470Z,1017.93
2018-12-28T04:54:32.453Z,1017.91
2018-12-28T04:55:32.442Z,1017.92
2018-12-28T04:56:32.405Z,1017.93
2018-12-28T04:57:32.387Z,1017.97
2018-12-28T04:58:32.370Z,1017.98
2018-12-28T04:59:32.445Z,1017.95
2018-12-28T05:00:32.319Z,1017.99
2018-12-28T05:01:32.301Z,1017.99
2018-12-28T05:02:32.279Z,1018.02
2018-12-28T05:03:32.259Z,1018.03
2018-12-28T05:04:32.235Z,1018.03
2018-12-28T05:05:32.214Z,1018.00
2018-12-28T05:06:32.199Z,1018.02
2018-12-28T05:07:32.169Z,1018.05
2018-12-28T05:08:32.151Z,1018.04
2018-12-28T05:09:32.137Z,1018.06
2018-12-28T05:10:32.109Z,1018.03
2018-12-28T05:11:32.086Z,1018.03
2018-12-28T05:12:32.067Z,1017.99
2018-12-28T05:13:32.041Z,1018.05
2018-12-28T05:14:32.024Z,1018.08
2018-12-28T05:15:31.996Z,1018.10
2018-12-28T05:16:31.981Z,1018.14
2018-12-28T05:17:31.955Z,1018.10
2018-12-28T05:18:31.935Z,1018.09
2018-12-28T05:19:31.911Z,1018.07
2018-12-28T05:20:31.892Z,1018.08
2018-12-28T05:21:31.871Z,1018.09
2018-12-28T05:22:31.849Z,1018.11
2018-12-28T05:23:31.823Z,1018.12
2018-12-28T05:24:31.807Z,1018.10
2018-12-28T05:25:31.786Z,1018.14
2018-12-28T05:26:31.765Z,1018.13
2018-12-28T05:27:31.743Z,1018.10
2018-12-28T05:28:31.719Z,1018.11
2018-12-28T05:29:31.703Z,1018.07
2018-12-28T05:30:31.683Z,1018.11
2018-12-28T05:31:31.651Z,1018.12
2018-12-28T05:32:31.633Z,1018.10
2018-12-28T05:33:31.611Z,1018.15
2018-12-28T05:34:31.591Z,1018.14
2018-12-28T05:35:31.569Z,1018.11
2018-12-28T05:36:31.554Z,1018.15
2018-12-28T05:37:31.525Z,1018.15
2018-12-28T05:38:31.503Z,1018.16
2018-12-28T05:39:31.482Z,1018.17
2018-12-28T05:40:31.466Z,1018.18
2018-12-28T05:41:31.437Z,1018.18
2018-12-28T05:42:31.418Z,1018.13
2018-12-28T05:43:31.397Z,1018.15
2018-12-28T05:44:31.376Z,1018.16
2018-12-28T05:45:31.353Z,1018.16
2018-12-28T05:46:31.335Z,1018.15
2018-12-28T05:47:31.313Z,1018.18
2018-12-28T05:48:31.289Z,1018.21
2018-12-28T05:49:31.271Z,1018.20
2018-12-28T05:50:31.248Z,1018.19
2018-12-28T05:51:31.223Z,1018.23
2018-12-28T05:52:31.205Z,1018.22
2018-12-28T05:53:31.181Z,1018.23
2018-12-28T05:54:31.167Z,1018.20
2018-12-28T05:55:31.138Z,1018.24
2018-12-28T05:56:31.115Z,1018.21
2018-12-28T05:57:31.097Z,1018.20
2018-12-28T05:58:31.077Z,1018.21
2018-12-28T05:59:31.069Z,1018.19
2018-12-28T06:00:31.030Z,1018.22
2018-12-28T06:01:31.016Z,1018.20
2018-12-28T06:02:30.990Z,1018.21
2018-12-28T06:03:30.975Z,1018.18
2018-12-28T06:04:30.947Z,1018.25
2018-12-28T06:05:30.924Z,1018.26
2018-12-28T06:06:30.901Z,1018.26
2018-12-28T06:07:30.882Z,1018.26
2018-12-28T06:08:30.863Z,1018.21
2018-12-28T06:09:30.837Z,1018.24
2018-12-28T06:10:33.015Z,1018.29
2018-12-28T06:11:30.794Z,1018.26
2018-12-28T06:12:30.774Z,1018.33
2018-12-28T06:13:30.750Z,1018.32
2018-12-28T06:14:30.738Z,1018.33
2018-12-28T06:15:30.709Z,1018.32
2018-12-28T06:16:30.688Z,1018.33
2018-12-28T06:17:30.667Z,1018.33
2018-12-28T06:18:30.648Z,1018.36
2018-12-28T06:19:30.626Z,1018.33
2018-12-28T06:20:30.604Z,1018.32
2018-12-28T06:21:30.584Z,1018.32
2018-12-28T06:22:30.558Z,1018.37
2018-12-28T06:23:30.536Z,1018.31
2018-12-28T06:24:30.516Z,1018.36
2018-12-28T06:25:30.497Z,1018.35
2018-12-28T06:26:30.471Z,1018.34
2018-12-28T06:27:30.454Z,1018.34
2018-12-28T06:28:30.432Z,1018.38
2018-12-28T06:29:30.412Z,1018.35
2018-12-28T06:30:30.387Z,1018.41
2018-12-28T06:31:30.369Z,1018.38
2018-12-28T06:32:30.340Z,1018.36
2018-12-28T06:33:30.322Z,1018.39
2018-12-28T06:34:30.310Z,1018.38
2018-12-28T06:35:30.278Z,1018.35
2018-12-28T06:36:30.256Z,1018.37
2018-12-28T06:37:30.236Z,1018.33
2018-12-28T06:38:30.223Z,1018.30
2018-12-28T06:39:30.201Z,1018.30
2018-12-28T06:40:30.172Z,1018.26
2018-12-28T06:41:30.152Z,1018.29
2018-12-28T06:42:30.130Z,1018.29
2018-12-28T06:43:30.108Z,1018.34
2018-12-28T06:44:30.083Z,1018.40
2018-12-28T06:45:30.062Z,1018.39
2018-12-28T06:46:30.042Z,1018.38
2018-12-28T06:47:30.018Z,1018.39
2018-12-28T06:48:29.995Z,1018.36
2018-12-28T06:49:29.975Z,1018.40
2018-12-28T06:50:29.959Z,1018.37
2018-12-28T06:51:29.938Z,1018.43
2018-12-28T06:52:29.921Z,1018.40
2018-12-28T06:53:29.892Z,1018.48
2018-12-28T06:54:29.873Z,1018.41
2018-12-28T06:55:29.850Z,1018.48
2018-12-28T06:56:29.831Z,1018.42
2018-12-28T06:57:29.806Z,1018.42
2018-12-28T06:58:29.784Z,1018.47
2018-12-28T06:59:29.759Z,1018.48
2018-12-28T07:00:29.745Z,1018.47
2018-12-28T07:01:29.723Z,1018.42
2018-12-28T07:02:29.698Z,1018.39
2018-12-28T07:03:29.678Z,1018.38
2018-12-28T07:04:29.654Z,1018.44
2018-12-28T07:05:29.638Z,1018.46
2018-12-28T07:06:29.612Z,1018.49
2018-12-28T07:07:29.590Z,1018.45
2018-12-28T07:08:29.572Z,1018.47
2018-12-28T07:09:29.554Z,1018.55
2018-12-28T07:10:29.529Z,1018.52
2018-12-28T07:11:29.506Z,1018.54
2018-12-28T07:12:29.485Z,1018.52
2018-12-28T07:13:29.463Z,1018.52
2018-12-28T07:14:29.446Z,1018.48
2018-12-28T07:15:29.417Z,1018.51
2018-12-28T07:16:29.403Z,1018.47
2018-12-28T07:17:29.378Z,1018.50
2018-12-28T07:18:29.356Z,1018.46
2018-12-28T07:19:29.335Z,1018.48
2018-12-28T07:20:29.314Z,1018.51
2018-12-28T07:21:29.289Z,1018.49
2018-12-28T07:22:29.273Z,1018.47
2018-12-28T07:23:29.249Z,1018.47
2018-12-28T07:24:29.229Z,1018.47
2018-12-28T07:25:29.216Z,1018.49
2018-12-28T07:26:29.187Z,1018.46
2018-12-28T07:27:29.159Z,1018.49
2018-12-28T07:28:29.142Z,1018.50
2018-12-28T07:29:29.118Z,1018.50
2018-12-28T07:30:29.101Z,1018.53
2018-12-28T07:31:29.075Z,1018.44
2018-12-28T07:32:29.054Z,1018.51
2018-12-28T07:33:29.034Z,1018.47
2018-12-28T07:34:29.014Z,1018.46
2018-12-28T07:35:28.990Z,1018.44
2018-12-28T07:36:28.973Z,1018.44
2018-12-28T07:37:28.946Z,1018.40
2018-12-28T07:38:28.932Z,1018.42
2018-12-28T07:39:28.904Z,1018.42
2018-12-28T07:40:28.889Z,1018.42
2018-12-28T07:41:28.865Z,1018.41
2018-12-28T07:42:28.850Z,1018.41
2018-12-28T07:43:28.827Z,1018.42
2018-12-28T07:44:28.804Z,1018.45
2018-12-28T07:45:28.777Z,1018.45
2018-12-28T07:46:28.767Z,1018.44
2018-12-28T07:47:28.738Z,1018.45
2018-12-28T07:48:28.713Z,1018.49
2018-12-28T07:49:28.702Z,1018.50
2018-12-28T07:50:28.672Z,1018.47
2018-12-28T07:51:31.100Z,1018.46
2018-12-28T07:52:28.625Z,1018.46
2018-12-28T07:53:28.606Z,1018.46
2018-12-28T07:54:28.585Z,1018.48
2018-12-28T07:55:28.567Z,1018.49
2018-12-28T07:56:28.546Z,1018.49
2018-12-28T07:57:28.522Z,1018.47
2018-12-28T07:58:28.505Z,1018.46
2018-12-28T07:59:28.480Z,1018.52
2018-12-28T08:00:28.455Z,1018.49
2018-12-28T08:01:28.438Z,1018.49
2018-12-28T08:02:28.413Z,1018.50
2018-12-28T08:03:28.391Z,1018.53
2018-12-28T08:04:28.373Z,1018.56
2018-12-28T08:05:28.350Z,1018.57
2018-12-28T08:06:28.335Z,1018.54
2018-12-28T08:07:28.307Z,1018.57
2018-12-28T08:08:28.285Z,1018.56
2018-12-28T08:09:28.269Z,1018.56
2018-12-28T08:10:28.247Z,1018.55
2018-12-28T08:11:28.224Z,1018.60
2018-12-28T08:12:28.204Z,1018.58
2018-12-28T08:13:28.177Z,1018.57
2018-12-28T08:14:28.163Z,1018.60
2018-12-28T08:15:28.135Z,1018.65
2018-12-28T08:16:28.117Z,1018.66
2018-12-28T08:17:28.094Z,1018.63
2018-12-28T08:18:28.071Z,1018.68
2018-12-28T08:19:28.051Z,1018.67
2018-12-28T08:20:28.029Z,1018.70
2018-12-28T08:21:28.009Z,1018.66
2018-12-28T08:22:27.989Z,1018.69
2018-12-28T08:23:27.983Z,1018.73
2018-12-28T08:24:27.943Z,1018.70
2018-12-28T08:25:27.924Z,1018.75
2018-12-28T08:26:27.901Z,1018.81
2018-12-28T08:27:27.881Z,1018.77
2018-12-28T08:28:27.861Z,1018.78
2018-12-28T08:29:27.837Z,1018.77
2018-12-28T08:30:27.816Z,1018.74
2018-12-28T08:31:27.795Z,1018.73
2018-12-28T08:32:27.774Z,1018.76
2018-12-28T08:33:27.753Z,1018.80
2018-12-28T08:34:27.732Z,1018.76
2018-12-28T08:35:27.711Z,1018.77
2018-12-28T08:36:27.687Z,1018.83
2018-12-28T08:37:27.668Z,1018.76
2018-12-28T08:38:27.646Z,1018.82
2018-12-28T08:39:27.628Z,1018.86
2018-12-28T08:40:27.600Z,1018.82
2018-12-28T08:41:27.584Z,1018.81
2018-12-28T08:42:27.562Z,1018.82
2018-12-28T08:43:27.545Z,1018.83
2018-12-28T08:44:27.516Z,1018.85
2018-12-28T08:45:27.497Z,1018.83
2018-12-28T08:46:27.476Z,1018.87
2018-12-28T08:47:27.452Z,1018.81
2018-12-28T08:48:28.182Z,1018.83
2018-12-28T08:49:27.413Z,1018.85
2018-12-28T08:50:27.390Z,1018.83
2018-12-28T08:51:27.362Z,1018.90
2018-12-28T08:52:27.346Z,1018.88
2018-12-28T08:53:27.324Z,1018.95
2018-12-28T08:54:27.304Z,1018.92
2018-12-28T08:55:27.282Z,1018.94
2018-12-28T08:56:27.261Z,1018.93
2018-12-28T08:57:27.239Z,1018.95
2018-12-28T08:58:27.222Z,1018.95
2018-12-28T08:59:27.199Z,1018.99
2018-12-28T09:00:27.174Z,1018.99
2018-12-28T09:01:27.148Z,1018.98
2018-12-28T09:02:27.132Z,1019.04
2018-12-28T09:03:27.106Z,1018.98
2018-12-28T09:04:27.092Z,1019.01
2018-12-28T09:05:27.069Z,1019.02
2018-12-28T09:06:27.049Z,1019.02
2018-12-28T09:07:27.028Z,1019.02
2018-12-28T09:08:27.005Z,1019.06
2018-12-28T09:09:26.982Z,1019.06
2018-12-28T09:10:26.965Z,1019.07
2018-12-28T09:11:26.942Z,1019.10
2018-12-28T09:12:26.934Z,1019.11
2018-12-28T09:13:26.901Z,1019.11
2018-12-28T09:14:26.884Z,1019.10
2018-12-28T09:15:26.860Z,1019.08
2018-12-28T09:16:26.841Z,1019.09
2018-12-28T09:17:26.812Z,1019.09
2018-12-28T09:18:26.793Z,1019.12
2018-12-28T09:19:26.771Z,1019.14
2018-12-28T09:20:26.763Z,1019.13
2018-12-28T09:21:26.728Z,1019.16
2018-12-28T09:22:26.711Z,1019.14
2018-12-28T09:23:26.690Z,1019.17
2018-12-28T09:24:27.746Z,1019.18
2018-12-28T09:25:26.746Z,1019.17
2018-12-28T09:26:26.622Z,1019.20
2018-12-28T09:27:26.605Z,1019.23
2018-12-28T09:28:26.583Z,1019.19
2018-12-28T09:29:26.562Z,1019.26
2018-12-28T09:30:26.535Z,1019.24
2018-12-28T09:31:26.521Z,1019.34
2018-12-28T09:32:26.494Z,1019.22
2018-12-28T09:33:26.476Z,1019.28
2018-12-28T09:34:26.454Z,1019.24
2018-12-28T09:35:26.429Z,1019.25
2018-12-28T09:36:26.411Z,1019.27
2018-12-28T09:37:26.392Z,1019.26
2018-12-28T09:38:26.374Z,1019.22
2018-12-28T09:39:26.349Z,1019.24
2018-12-28T09:40:26.329Z,1019.23
2018-12-28T09:41:26.306Z,1019.23
2018-12-28T09:42:26.290Z,1019.20
2018-12-28T09:43:26.266Z,1019.24
2018-12-28T09:44:26.240Z,1019.24
2018-12-28T09:45:26.219Z,1019.24
2018-12-28T09:46:26.197Z,1019.22
2018-12-28T09:47:26.177Z,1019.29
2018-12-28T09:48:26.158Z,1019.20
2018-12-28T09:49:26.137Z,1019.22
2018-12-28T09:50:26.108Z,1019.22
2018-12-28T09:51:26.091Z,1019.21
2018-12-28T09:52:26.085Z,1019.18
2018-12-28T09:53:26.048Z,1019.19
2018-12-28T09:54:26.032Z,1019.23
2018-12-28T09:55:26.006Z,1019.17
2018-12-28T09:56:25.996Z,1019.19
2018-12-28T09:57:25.967Z,1019.20
2018-12-28T09:58:25.946Z,1019.22
2018-12-28T09:59:25.929Z,1019.17
2018-12-28T10:00:25.906Z,1019.23
2018-12-28T10:01:25.884Z,1019.14
2018-12-28T10:02:25.862Z,1019.11
2018-12-28T10:03:25.840Z,1019.17
2018-12-28T10:04:25.820Z,1019.16
2018-12-28T10:05:25.805Z,1019.13
2018-12-28T10:06:25.775Z,1019.13
2018-12-28T10:07:25.759Z,1019.11
2018-12-28T10:08:25.741Z,1019.19
2018-12-28T10:09:25.717Z,1019.15
2018-12-28T10:10:25.699Z,1019.14
2018-12-28T10:11:31.409Z,1019.12
2018-12-28T10:12:25.652Z,1019.12
2018-12-28T10:13:25.634Z,1019.11
2018-12-28T10:14:25.609Z,1019.12
2018-12-28T10:15:25.592Z,1019.13
2018-12-28T10:16:25.631Z,1019.12
2018-12-28T10:17:25.547Z,1019.09
2018-12-28T10:18:25.536Z,1019.08
2018-12-28T10:19:25.508Z,1019.10
2018-12-28T10:20:25.486Z,1019.16
2018-12-28T10:21:25.469Z,1019.14
2018-12-28T10:22:25.445Z,1019.12
2018-12-28T10:23:25.423Z,1019.11
2018-12-28T10:24:25.401Z,1019.10
2018-12-28T10:25:25.381Z,1019.13
2018-12-28T10:26:25.369Z,1019.13
2018-12-28T10:27:25.340Z,1019.09
2018-12-28T10:28:25.321Z,1019.08
2018-12-28T10:29:25.292Z,1019.15
2018-12-28T10:30:25.278Z,1019.13
2018-12-28T10:31:25.304Z,1019.12
2018-12-28T10:32:25.241Z,1019.19
2018-12-28T10:33:25.214Z,1019.17
2018-12-28T10:34:25.190Z,1019.08
2018-12-28T10:35:25.174Z,1019.08
2018-12-28T10:36:25.152Z,1019.08
2018-12-28T10:37:25.132Z,1019.12
2018-12-28T10:38:25.112Z,1019.05
2018-12-28T10:39:25.102Z,1019.08
2018-12-28T10:40:25.071Z,1019.08
2018-12-28T10:41:25.047Z,1019.05
2018-12-28T10:42:25.030Z,1019.07
2018-12-28T10:43:25.018Z,1019.01
2018-12-28T10:44:24.991Z,1019.04
2018-12-28T10:45:24.977Z,1018.97
2018-12-28T10:46:24.940Z,1018.99
2018-12-28T10:47:24.922Z,1018.97
2018-12-28T10:48:24.907Z,1018.96
2018-12-28T10:49:24.892Z,1018.97
2018-12-28T10:50:24.871Z,1018.93
2018-12-28T10:51:24.838Z,1019.00
2018-12-28T10:52:24.822Z,1019.01
2018-12-28T10:53:24.801Z,1019.00
2018-12-28T10:54:24.781Z,1018.97
2018-12-28T10:55:24.762Z,1018.94
2018-12-28T10:56:24.734Z,1018.96
2018-12-28T10:57:24.715Z,1018.93
2018-12-28T10:58:24.695Z,1018.93
2018-12-28T10:59:24.673Z,1018.95
2018-12-28T11:00:24.652Z,1018.92
2018-12-28T11:01:24.632Z,1018.96
2018-12-28T11:02:24.612Z,1018.94
2018-12-28T11:03:24.588Z,1018.91
2018-12-28T11:04:24.569Z,1018.93
2018-12-28T11:05:24.546Z,1018.89
2018-12-28T11:06:24.530Z,1018.95
2018-12-28T11:07:24.506Z,1018.90
2018-12-28T11:08:24.486Z,1018.92
2018-12-28T11:09:24.462Z,1018.93
2018-12-28T11:10:24.445Z,1018.86
2018-12-28T11:11:24.424Z,1018.90
2018-12-28T11:12:24.410Z,1018.87
2018-12-28T11:13:24.384Z,1018.87
2018-12-28T11:14:24.365Z,1018.87
2018-12-28T11:15:24.338Z,1018.91
2018-12-28T11:16:24.319Z,1018.89
2018-12-28T11:17:24.300Z,1018.88
2018-12-28T11:18:24.279Z,1018.95
2018-12-28T11:19:24.256Z,1018.88
2018-12-28T11:20:24.231Z,1018.91
2018-12-28T11:21:24.225Z,1018.85
2018-12-28T11:22:24.196Z,1018.89
2018-12-28T11:23:24.171Z,1018.87
2018-12-28T11:24:24.153Z,1018.88
2018-12-28T11:25:24.132Z,1018.85
2018-12-28T11:26:24.112Z,1018.86
2018-12-28T11:27:24.092Z,1018.82
2018-12-28T11:28:24.069Z,1018.79
2018-12-28T11:29:24.053Z,1018.83
2018-12-28T11:30:24.023Z,1018.80
2018-12-28T11:31:24.013Z,1018.83
2018-12-28T11:32:23.984Z,1018.85
2018-12-28T11:33:23.977Z,1018.90
2018-12-28T11:34:23.941Z,1018.89
2018-12-28T11:35:23.925Z,1018.89
2018-12-28T11:36:23.899Z,1018.85
2018-12-28T11:37:23.883Z,1018.86
2018-12-28T11:38:23.861Z,1018.87
2018-12-28T11:39:23.838Z,1018.93
2018-12-28T11:40:23.819Z,1018.91
2018-12-28T11:41:23.796Z,1018.95
2018-12-28T11:42:23.775Z,1018.94
2018-12-28T11:43:23.753Z,1018.92
2018-12-28T11:44:23.731Z,1018.90
2018-12-28T11:45:23.712Z,1018.94
2018-12-28T11:46:23.691Z,1018.95
2018-12-28T11:47:23.675Z,1018.97
2018-12-28T11:48:23.651Z,1018.97
2018-12-28T11:49:23.632Z,1018.93
2018-12-28T11:50:23.613Z,1018.96
2018-12-28T11:51:23.590Z,1018.95
2018-12-28T11:52:23.570Z,1019.00
2018-12-28T11:53:23.548Z,1019.00
2018-12-28T11:54:23.539Z,1018.98
2018-12-28T11:55:23.508Z,1019.00
2018-12-28T11:56:23.481Z,1019.00
2018-12-28T11:57:23.463Z,1019.02
2018-12-28T11:58:23.446Z,1019.02
2018-12-28T11:59:23.422Z,1019.02
2018-12-28T12:00:23.401Z,1019.07
2018-12-28T12:01:23.385Z,1019.08
2018-12-28T12:02:23.406Z,1019.13
2018-12-28T12:03:23.345Z,1019.07
2018-12-28T12:04:23.320Z,1019.06
2018-12-28T12:05:23.313Z,1019.06